Main page
METAR-TAF:

METAR-TAF

Airports :

Innsbruck Airport

Innsbruck, Austria

latitude: 47-16N, longitude: 011-21E, elevation: 581 m

Current weather observation

The report was made 16 minutes ago, at 10:50 UTC
Wind 2 kt from variable directions
Temperature 7°C
Humidity 42%
Pressure 1018 hPa
Visibility 10 km or more
no clouds below 1500 m and no cumulonimbus

METAR: LOWI 011050Z VRB02KT CAVOK 07/M05 Q1018 NOSIG

Time: 13:06 (11:06 UTC)

Forecast

The report was made 5 hours and 51 minutes ago, at 05:15 UTC
Forecast valid from 01 at 06 UTC to 02 at 06 UTC
Wind 4 kt from the West
Visibility 10 km or more
Few clouds at a height of 7000 ft
Becoming
from 01 at 10 UTC to 01 at 12 UTC
Wind 8 kt from the East
Becoming
from 01 at 17 UTC to 01 at 19 UTC
Wind 4 kt from the West

TAF: LOWI 010515Z 0106/0206 27004KT 9999 FEW070 TX12/0115Z TNM04/0204Z BECMG 0110/0112 08008KT BECMG 0117/0119 27004KT

Weather observations and forecasts of more than 4000 airports (METAR and TAF reports).

The available stations are represented by yellow and red dots on the map.

Hover mouse over dot to see the name of the station.

Then click to see weather observations and forecasts.

To change the map : click on the green buttons with a black cross to zoom in, on the green button with a dash to zoom out, or on the green arrows for adjacent maps.


METAR-TAF: